createdAt,value
2024-02-01T00:00:56.397Z,0.77
2024-02-01T00:01:56.355Z,0.74
2024-02-01T00:02:56.453Z,0.77
2024-02-01T00:03:56.398Z,0.74
2024-02-01T00:04:56.442Z,0.76
2024-02-01T00:05:56.517Z,0.75
2024-02-01T00:06:56.569Z,0.75
2024-02-01T00:07:56.456Z,0.73
2024-02-01T00:08:56.524Z,0.74
2024-02-01T00:09:56.501Z,0.73
2024-02-01T00:10:56.517Z,0.74
2024-02-01T00:11:56.566Z,0.72
2024-02-01T00:12:56.549Z,0.72
2024-02-01T00:13:56.569Z,0.72
2024-02-01T00:14:56.640Z,0.73
2024-02-01T00:15:56.627Z,0.72
2024-02-01T00:16:56.637Z,0.72
2024-02-01T00:17:56.738Z,0.71
2024-02-01T00:18:56.782Z,0.71
2024-02-01T00:19:56.836Z,0.72
2024-02-01T00:20:56.786Z,0.70
2024-02-01T00:21:56.736Z,0.71
2024-02-01T00:22:56.774Z,0.71
2024-02-01T00:23:56.803Z,0.70
2024-02-01T00:24:56.829Z,0.71
2024-02-01T00:25:56.842Z,0.70
2024-02-01T00:26:56.898Z,0.71
2024-02-01T00:27:56.884Z,0.70
2024-02-01T00:28:56.897Z,0.69
2024-02-01T00:29:56.980Z,0.70
2024-02-01T00:30:56.979Z,0.71
2024-02-01T00:31:56.964Z,0.70
2024-02-01T00:32:57.208Z,0.68
2024-02-01T00:33:57.132Z,0.69
2024-02-01T00:34:57.107Z,0.69
2024-02-01T00:35:57.093Z,0.70
2024-02-01T00:36:57.107Z,0.70
2024-02-01T00:37:57.107Z,0.69
2024-02-01T00:38:57.171Z,0.69
2024-02-01T00:39:57.189Z,0.70
2024-02-01T00:40:57.210Z,0.69
2024-02-01T00:41:57.276Z,0.70
2024-02-01T00:42:57.272Z,0.70
2024-02-01T00:43:57.271Z,0.69
2024-02-01T00:44:57.335Z,0.69
2024-02-01T00:45:57.349Z,0.69
2024-02-01T00:46:57.397Z,0.68
2024-02-01T00:47:57.492Z,0.68
2024-02-01T00:48:57.515Z,0.68
2024-02-01T00:49:57.429Z,0.69
2024-02-01T00:50:57.537Z,0.68
2024-02-01T00:51:57.508Z,0.68
2024-02-01T00:52:57.527Z,0.67
2024-02-01T00:53:57.623Z,0.67
2024-02-01T00:54:57.601Z,0.67
2024-02-01T00:55:57.641Z,0.67
2024-02-01T00:56:57.685Z,0.67
2024-02-01T00:57:57.653Z,0.67
2024-02-01T00:58:57.680Z,0.66
2024-02-01T00:59:57.848Z,0.66
2024-02-01T01:00:57.871Z,0.66
2024-02-01T01:01:57.815Z,0.66
2024-02-01T01:02:57.820Z,0.65
2024-02-01T01:03:57.865Z,0.65
2024-02-01T01:04:57.889Z,0.65
2024-02-01T01:05:57.881Z,0.65
2024-02-01T01:06:57.861Z,0.65
2024-02-01T01:07:57.951Z,0.66
2024-02-01T01:08:57.993Z,0.65
2024-02-01T01:09:57.955Z,0.68
2024-02-01T01:10:57.974Z,0.67
2024-02-01T01:11:58.019Z,0.67
2024-02-01T01:12:58.017Z,0.66
2024-02-01T01:13:58.045Z,0.67
2024-02-01T01:14:58.093Z,0.68
2024-02-01T01:15:58.119Z,0.68
2024-02-01T01:16:58.119Z,0.68
2024-02-01T01:17:58.209Z,0.67
2024-02-01T01:18:58.265Z,0.67
2024-02-01T01:19:58.249Z,0.67
2024-02-01T01:20:58.281Z,0.67
2024-02-01T01:21:58.255Z,0.68
2024-02-01T01:22:58.276Z,0.68
2024-02-01T01:23:58.336Z,0.68
2024-02-01T01:24:58.320Z,0.68
2024-02-01T01:25:58.360Z,0.70
2024-02-01T01:26:58.396Z,0.69
2024-02-01T01:27:58.400Z,0.67
2024-02-01T01:28:58.426Z,0.69
2024-02-01T01:29:58.496Z,0.70
2024-02-01T01:30:58.494Z,0.70
2024-02-01T01:31:58.531Z,0.70
2024-02-01T01:32:58.709Z,0.70
2024-02-01T01:33:58.859Z,0.71
2024-02-01T01:34:58.714Z,0.70
2024-02-01T01:35:58.639Z,0.71
2024-02-01T01:36:58.644Z,0.71
2024-02-01T01:37:58.675Z,0.70
2024-02-01T01:38:58.733Z,0.71
2024-02-01T01:39:58.714Z,0.72
2024-02-01T01:40:58.752Z,0.71
2024-02-01T01:41:58.789Z,0.71
2024-02-01T01:42:58.808Z,0.71
2024-02-01T01:43:58.840Z,0.71
2024-02-01T01:44:58.865Z,0.70
2024-02-01T01:45:58.889Z,0.72
2024-02-01T01:46:58.909Z,0.71
2024-02-01T01:47:59.070Z,0.70
2024-02-01T01:48:59.052Z,0.72
2024-02-01T01:49:59.046Z,0.69
2024-02-01T01:50:59.091Z,0.71
2024-02-01T01:51:59.053Z,0.69
2024-02-01T01:52:59.110Z,0.69
2024-02-01T01:53:59.117Z,0.69
2024-02-01T01:54:59.144Z,0.67
2024-02-01T01:55:59.163Z,0.67
2024-02-01T01:56:59.217Z,0.66
2024-02-01T01:57:59.211Z,0.65
2024-02-01T01:58:59.235Z,0.66
2024-02-01T01:59:59.435Z,0.66
2024-02-01T02:00:59.465Z,0.68
2024-02-01T02:01:59.353Z,0.66
2024-02-01T02:03:00.577Z,0.66
2024-02-01T02:03:59.497Z,0.65
2024-02-01T02:04:59.431Z,0.66
2024-02-01T02:05:59.542Z,0.66
2024-02-01T02:06:59.573Z,0.65
2024-02-01T02:07:59.518Z,0.67
2024-02-01T02:08:59.610Z,0.67
2024-02-01T02:09:59.581Z,0.66
2024-02-01T02:10:59.614Z,0.65
2024-02-01T02:11:59.695Z,0.66
2024-02-01T02:12:59.673Z,0.65
2024-02-01T02:13:59.715Z,0.66
2024-02-01T02:14:59.758Z,0.66
2024-02-01T02:15:59.767Z,0.66
2024-02-01T02:16:59.910Z,0.65
2024-02-01T02:17:59.993Z,0.66
2024-02-01T02:18:59.941Z,0.64
2024-02-01T02:19:59.911Z,0.64
2024-02-01T02:20:59.888Z,0.63
2024-02-01T02:21:59.900Z,0.63
2024-02-01T02:22:59.917Z,0.63
2024-02-01T02:23:59.996Z,0.62
2024-02-01T02:24:59.964Z,0.62
2024-02-01T02:25:59.990Z,0.62
2024-02-01T02:27:00.042Z,0.63
2024-02-01T02:28:00.069Z,0.60
2024-02-01T02:29:00.063Z,0.61
2024-02-01T02:30:00.204Z,0.60
2024-02-01T02:31:00.124Z,0.60
2024-02-01T02:32:00.153Z,0.59
2024-02-01T02:33:00.250Z,0.59
2024-02-01T02:34:00.348Z,0.57
2024-02-01T02:35:00.227Z,0.57
2024-02-01T02:36:00.259Z,0.58
2024-02-01T02:37:00.273Z,0.58
2024-02-01T02:38:00.316Z,0.58
2024-02-01T02:39:00.396Z,0.57
2024-02-01T02:40:00.375Z,0.58
2024-02-01T02:41:00.387Z,0.57
2024-02-01T02:42:00.427Z,0.57
2024-02-01T02:43:00.424Z,0.56
2024-02-01T02:44:00.472Z,0.57
2024-02-01T02:45:00.523Z,0.57
2024-02-01T02:46:00.560Z,0.58
2024-02-01T02:47:00.514Z,0.58
2024-02-01T02:48:00.712Z,0.57
2024-02-01T02:49:00.883Z,0.57
2024-02-01T02:50:00.601Z,0.57
2024-02-01T02:51:00.666Z,0.56
2024-02-01T02:52:00.680Z,0.57
2024-02-01T02:53:00.691Z,0.57
2024-02-01T02:54:00.812Z,0.56
2024-02-01T02:55:00.754Z,0.56
2024-02-01T02:56:00.786Z,0.57
2024-02-01T02:57:00.851Z,0.56
2024-02-01T02:58:00.818Z,0.56
2024-02-01T02:59:00.883Z,0.55
2024-02-01T03:00:00.901Z,0.56
2024-02-01T03:01:00.974Z,0.56
2024-02-01T03:02:00.925Z,0.55
2024-02-01T03:03:01.012Z,0.54
2024-02-01T03:04:01.000Z,0.55
2024-02-01T03:05:01.018Z,0.55
2024-02-01T03:06:01.129Z,0.53
2024-02-01T03:07:01.066Z,0.54
2024-02-01T03:08:01.091Z,0.53
2024-02-01T03:09:01.123Z,0.53
2024-02-01T03:10:01.150Z,0.53
2024-02-01T03:11:01.151Z,0.53
2024-02-01T03:12:01.187Z,0.54
2024-02-01T03:13:01.181Z,0.54
2024-02-01T03:14:01.217Z,0.54
2024-02-01T03:15:01.330Z,0.54
2024-02-01T03:16:01.294Z,0.55
2024-02-01T03:17:01.306Z,0.53
2024-02-01T03:18:01.452Z,0.55
2024-02-01T03:19:01.542Z,0.56
2024-02-01T03:20:01.402Z,0.57
2024-02-01T03:21:01.440Z,0.56
2024-02-01T03:22:01.454Z,0.57
2024-02-01T03:23:01.510Z,0.56
2024-02-01T03:24:01.554Z,0.56
2024-02-01T03:25:01.889Z,0.58
2024-02-01T03:26:01.586Z,0.57
2024-02-01T03:27:01.654Z,0.58
2024-02-01T03:28:01.706Z,0.59
2024-02-01T03:29:01.666Z,0.59
2024-02-01T03:30:01.975Z,0.60
2024-02-01T03:31:01.742Z,0.59
2024-02-01T03:32:01.832Z,0.60
2024-02-01T03:33:01.894Z,0.59
2024-02-01T03:34:02.023Z,0.59
2024-02-01T03:35:01.933Z,0.60
2024-02-01T03:36:01.905Z,0.58
2024-02-01T03:37:01.918Z,0.60
2024-02-01T03:38:01.969Z,0.60
2024-02-01T03:39:02.002Z,0.60
2024-02-01T03:40:02.004Z,0.61
2024-02-01T03:41:02.022Z,0.61
2024-02-01T03:42:02.415Z,0.60
2024-02-01T03:43:02.090Z,0.61
2024-02-01T03:44:02.122Z,0.60
2024-02-01T03:45:02.222Z,0.60
2024-02-01T03:46:02.170Z,0.60
2024-02-01T03:47:02.219Z,0.60
2024-02-01T03:48:02.374Z,0.61
2024-02-01T03:49:02.356Z,0.61
2024-02-01T03:50:02.421Z,0.61
2024-02-01T03:51:02.401Z,0.61
2024-02-01T03:52:02.387Z,0.59
2024-02-01T03:53:02.400Z,0.60
2024-02-01T03:54:02.495Z,0.60
2024-02-01T03:55:02.481Z,0.60
2024-02-01T03:56:02.503Z,0.60
2024-02-01T03:57:02.577Z,0.60
2024-02-01T03:58:02.614Z,0.60
2024-02-01T03:59:02.600Z,0.60
2024-02-01T04:00:02.652Z,0.60
2024-02-01T04:01:02.783Z,0.59
2024-02-01T04:02:02.693Z,0.60
2024-02-01T04:03:02.758Z,0.61
2024-02-01T04:04:02.816Z,0.60
2024-02-01T04:05:02.790Z,0.61
2024-02-01T04:06:02.890Z,0.61
2024-02-01T04:07:03.038Z,0.60
2024-02-01T04:08:02.884Z,0.60
2024-02-01T04:09:02.936Z,0.61
2024-02-01T04:10:02.946Z,0.61
2024-02-01T04:11:02.979Z,0.60
2024-02-01T04:12:03.036Z,0.60
2024-02-01T04:13:03.030Z,0.61
2024-02-01T04:14:03.047Z,0.60
2024-02-01T04:15:03.111Z,0.59
2024-02-01T04:16:03.139Z,0.60
2024-02-01T04:17:03.145Z,0.61
2024-02-01T04:18:03.321Z,0.60
2024-02-01T04:19:04.510Z,0.60
2024-02-01T04:20:03.299Z,0.61
2024-02-01T04:21:03.346Z,0.61
2024-02-01T04:22:03.332Z,0.59
2024-02-01T04:23:03.464Z,0.59
2024-02-01T04:24:03.397Z,0.60
2024-02-01T04:25:03.405Z,0.60
2024-02-01T04:26:03.443Z,0.60
2024-02-01T04:27:10.828Z,0.50
2024-02-01T04:28:11.073Z,0.50
2024-02-01T04:29:10.771Z,0.50
2024-02-01T04:30:10.826Z,0.50
2024-02-01T04:31:18.022Z,0.50
2024-02-01T04:32:18.003Z,0.50
2024-02-01T04:33:18.079Z,0.50
2024-02-01T04:34:19.069Z,0.50
2024-02-01T04:35:18.014Z,0.50
2024-02-01T04:36:18.042Z,0.51
2024-02-01T04:37:17.998Z,0.50
2024-02-01T04:38:18.060Z,0.50
2024-02-01T04:39:18.126Z,0.50
2024-02-01T04:40:18.048Z,0.51
2024-02-01T04:41:18.023Z,0.50
2024-02-01T04:42:18.072Z,0.51
2024-02-01T04:43:18.018Z,0.52
2024-02-01T04:44:18.032Z,0.52
2024-02-01T04:45:18.125Z,0.51
2024-02-01T04:46:18.026Z,0.51
2024-02-01T04:47:18.018Z,0.50
2024-02-01T04:48:18.140Z,0.51
2024-02-01T04:49:18.244Z,0.51
2024-02-01T04:50:18.036Z,0.51
2024-02-01T04:51:18.030Z,0.52
2024-02-01T04:52:18.027Z,0.52
2024-02-01T04:53:18.030Z,0.52
2024-02-01T04:54:18.104Z,0.54
2024-02-01T04:55:18.031Z,0.53
2024-02-01T04:56:18.035Z,0.54
2024-02-01T04:57:18.071Z,0.53
2024-02-01T04:58:18.037Z,0.53
2024-02-01T04:59:18.034Z,0.54
2024-02-01T05:00:18.132Z,0.53
2024-02-01T05:01:18.155Z,0.53
2024-02-01T05:02:18.093Z,0.53
2024-02-01T05:03:18.393Z,0.54
2024-02-01T05:04:18.039Z,0.55
2024-02-01T05:05:18.081Z,0.54
2024-02-01T05:06:18.100Z,0.54
2024-02-01T05:07:18.084Z,0.54
2024-02-01T05:08:18.030Z,0.54
2024-02-01T05:09:18.066Z,0.54
2024-02-01T05:10:18.066Z,0.55
2024-02-01T05:11:18.047Z,0.54
2024-02-01T05:12:18.099Z,0.54
2024-02-01T05:13:18.071Z,0.55
2024-02-01T05:14:18.049Z,0.55
2024-02-01T05:15:18.182Z,0.56
2024-02-01T05:16:18.152Z,0.55
2024-02-01T05:17:18.155Z,0.56
2024-02-01T05:18:18.287Z,0.55
2024-02-01T05:19:18.472Z,0.55
2024-02-01T05:20:18.269Z,0.55
2024-02-01T05:21:18.437Z,0.55
2024-02-01T05:22:18.321Z,0.55
2024-02-01T05:23:18.338Z,0.56
2024-02-01T05:24:18.451Z,0.57
2024-02-01T05:25:18.419Z,0.56
2024-02-01T05:26:18.482Z,0.56
2024-02-01T05:27:18.551Z,0.56
2024-02-01T05:28:18.514Z,0.55
2024-02-01T05:29:18.540Z,0.56
2024-02-01T05:30:21.083Z,0.57
2024-02-01T05:31:18.567Z,0.56
2024-02-01T05:32:18.721Z,0.57
2024-02-01T05:33:18.628Z,0.57
2024-02-01T05:34:18.762Z,0.57
2024-02-01T05:35:18.590Z,0.57
2024-02-01T05:36:18.634Z,0.57
2024-02-01T05:37:18.582Z,0.57
2024-02-01T05:38:18.599Z,0.56
2024-02-01T05:39:18.631Z,0.57
2024-02-01T05:40:18.591Z,0.56
2024-02-01T05:41:18.600Z,0.57
2024-02-01T05:42:18.662Z,0.56
2024-02-01T05:43:18.592Z,0.56
2024-02-01T05:44:18.606Z,0.57
2024-02-01T05:45:18.640Z,0.57
2024-02-01T05:46:18.599Z,0.57
2024-02-01T05:47:18.612Z,0.56
2024-02-01T05:48:18.711Z,0.54
2024-02-01T05:49:18.707Z,0.54
2024-02-01T05:50:18.612Z,0.53
2024-02-01T05:51:18.638Z,0.54
2024-02-01T05:52:18.661Z,0.53
2024-02-01T05:53:18.603Z,0.54
2024-02-01T05:54:18.677Z,0.53
2024-02-01T05:55:18.604Z,0.53
2024-02-01T05:56:18.628Z,0.54
2024-02-01T05:57:18.745Z,0.54
2024-02-01T05:58:18.646Z,0.55
2024-02-01T05:59:18.598Z,0.56
2024-02-01T06:00:18.801Z,0.56
2024-02-01T06:01:18.945Z,0.56
2024-02-01T06:02:18.617Z,0.57
2024-02-01T06:03:18.707Z,0.57
2024-02-01T06:04:18.642Z,0.56
2024-02-01T06:05:18.623Z,0.57
2024-02-01T06:06:18.806Z,0.59
2024-02-01T06:07:18.692Z,0.59
2024-02-01T06:08:18.632Z,0.59
2024-02-01T06:09:18.754Z,0.59
2024-02-01T06:10:18.638Z,0.61
2024-02-01T06:11:18.627Z,0.60
2024-02-01T06:12:18.795Z,0.61
2024-02-01T06:13:18.647Z,0.62
2024-02-01T06:14:18.683Z,0.63
2024-02-01T06:15:18.775Z,0.63
2024-02-01T06:16:18.643Z,0.63
2024-02-01T06:17:18.671Z,0.64
2024-02-01T06:18:18.789Z,0.64
2024-02-01T06:19:18.773Z,0.65
2024-02-01T06:20:18.655Z,0.64
2024-02-01T06:21:18.762Z,0.64
2024-02-01T06:22:18.638Z,0.66
2024-02-01T06:23:18.638Z,0.64
2024-02-01T06:24:18.810Z,0.65
2024-02-01T06:25:18.648Z,0.66
2024-02-01T06:26:18.656Z,0.65
2024-02-01T06:27:18.768Z,0.66
2024-02-01T06:28:18.658Z,0.65
2024-02-01T06:29:18.664Z,0.62
2024-02-01T06:30:18.752Z,0.56
2024-02-01T06:31:18.660Z,0.54
2024-02-01T06:32:18.668Z,0.52
2024-02-01T06:33:18.742Z,0.52
2024-02-01T06:34:18.702Z,0.52
2024-02-01T06:35:19.584Z,0.52
2024-02-01T06:36:19.186Z,0.53
2024-02-01T06:37:18.693Z,0.53
2024-02-01T06:38:18.659Z,0.52
2024-02-01T06:39:19.038Z,0.54
2024-02-01T06:40:18.757Z,0.54
2024-02-01T06:41:18.761Z,0.52
2024-02-01T06:42:18.854Z,0.51
2024-02-01T06:43:18.951Z,0.55
2024-02-01T06:44:18.668Z,0.58
2024-02-01T06:45:18.808Z,0.63
2024-02-01T06:46:18.683Z,0.66
2024-02-01T06:47:18.687Z,0.71
2024-02-01T06:48:18.773Z,0.74
2024-02-01T06:49:18.766Z,0.76
2024-02-01T06:50:18.729Z,0.78
2024-02-01T06:51:19.293Z,0.83
2024-02-01T06:52:18.833Z,0.85
2024-02-01T06:53:18.704Z,0.86
2024-02-01T06:54:18.757Z,0.87
2024-02-01T06:55:18.692Z,0.90
2024-02-01T06:56:18.715Z,0.92
2024-02-01T06:57:18.736Z,0.95
2024-02-01T06:58:18.696Z,0.94
2024-02-01T06:59:18.763Z,0.96
2024-02-01T07:00:18.740Z,0.97
2024-02-01T07:01:18.712Z,1.00
2024-02-01T07:02:18.691Z,1.00
2024-02-01T07:03:18.781Z,0.99
2024-02-01T07:04:19.041Z,1.02
2024-02-01T07:05:18.747Z,1.00
2024-02-01T07:06:18.822Z,1.00
2024-02-01T07:07:19.096Z,1.01
2024-02-01T07:08:18.777Z,1.01
2024-02-01T07:09:18.980Z,1.00
2024-02-01T07:10:18.789Z,1.01
2024-02-01T07:11:18.808Z,1.02
2024-02-01T07:12:19.032Z,1.02
2024-02-01T07:13:18.867Z,1.01
2024-02-01T07:14:18.893Z,1.00
2024-02-01T07:15:18.946Z,1.01
2024-02-01T07:16:18.909Z,1.03
2024-02-01T07:17:18.984Z,1.03
2024-02-01T07:18:19.019Z,1.01
2024-02-01T07:19:19.140Z,1.02
2024-02-01T07:20:18.970Z,1.00
2024-02-01T07:21:19.057Z,1.04
2024-02-01T07:22:19.187Z,1.01
2024-02-01T07:23:19.045Z,1.04
2024-02-01T07:24:19.325Z,1.06
2024-02-01T07:25:19.105Z,1.04
2024-02-01T07:26:19.524Z,1.04
2024-02-01T07:27:19.162Z,1.05
2024-02-01T07:28:19.156Z,1.08
2024-02-01T07:29:19.171Z,1.05
2024-02-01T07:30:19.242Z,1.05
2024-02-01T07:31:19.703Z,1.07
2024-02-01T07:32:19.229Z,1.05
2024-02-01T07:33:19.354Z,1.02
2024-02-01T07:34:19.398Z,1.00
2024-02-01T07:35:19.336Z,0.86
2024-02-01T07:36:19.778Z,0.84
2024-02-01T07:37:19.355Z,0.78
2024-02-01T07:38:19.405Z,0.84
2024-02-01T07:39:19.440Z,0.88
2024-02-01T07:40:19.405Z,0.96
2024-02-01T07:41:19.689Z,1.02
2024-02-01T07:42:19.607Z,1.02
2024-02-01T07:43:19.511Z,1.05
2024-02-01T07:44:19.566Z,1.17
2024-02-01T07:45:19.769Z,1.19
2024-02-01T07:46:19.657Z,1.23
2024-02-01T07:47:19.690Z,1.16
2024-02-01T07:48:19.775Z,1.10
2024-02-01T07:49:19.791Z,0.98
2024-02-01T07:50:19.730Z,0.96
2024-02-01T07:51:19.823Z,0.95
2024-02-01T07:52:19.735Z,0.89
2024-02-01T07:53:19.725Z,0.91
2024-02-01T07:54:19.825Z,0.91
2024-02-01T07:55:19.734Z,0.94
2024-02-01T07:56:20.238Z,0.98
2024-02-01T07:57:19.865Z,0.98
2024-02-01T07:58:19.772Z,1.02
2024-02-01T07:59:19.833Z,1.02
2024-02-01T08:00:19.962Z,1.00
2024-02-01T08:01:20.090Z,0.99
2024-02-01T08:02:19.799Z,1.01
2024-02-01T08:03:19.906Z,1.00
2024-02-01T08:04:19.972Z,1.00
2024-02-01T08:05:19.995Z,0.97
2024-02-01T08:06:20.318Z,0.93
2024-02-01T08:07:20.257Z,0.93
2024-02-01T08:08:20.162Z,0.91
2024-02-01T08:09:20.269Z,0.93
2024-02-01T08:10:20.549Z,0.95
2024-02-01T08:11:23.093Z,0.97
2024-02-01T08:12:20.843Z,0.94
2024-02-01T08:13:20.284Z,0.93
2024-02-01T08:14:20.282Z,0.96
2024-02-01T08:15:20.426Z,1.01
2024-02-01T08:16:20.290Z,1.02
2024-02-01T08:17:20.310Z,0.97
2024-02-01T08:18:20.353Z,0.95
2024-02-01T08:19:29.084Z,0.94
2024-02-01T08:20:21.354Z,0.94
2024-02-01T08:21:20.363Z,0.95
2024-02-01T08:22:20.297Z,0.97
2024-02-01T08:23:20.395Z,0.99
2024-02-01T08:24:20.385Z,1.05
2024-02-01T08:25:20.301Z,1.08
2024-02-01T08:26:20.722Z,1.09
2024-02-01T08:27:20.431Z,1.09
2024-02-01T08:28:20.311Z,1.06
2024-02-01T08:29:20.304Z,1.07
2024-02-01T08:30:20.350Z,1.09
2024-02-01T08:31:20.727Z,1.10
2024-02-01T08:32:20.302Z,1.12
2024-02-01T08:33:20.528Z,1.21
2024-02-01T08:34:20.453Z,1.23
2024-02-01T08:35:20.481Z,1.27
2024-02-01T08:36:20.536Z,1.23
2024-02-01T08:37:20.541Z,1.21
2024-02-01T08:38:20.611Z,1.21
2024-02-01T08:39:20.823Z,1.28
2024-02-01T08:40:20.731Z,1.30
2024-02-01T08:41:20.839Z,1.32
2024-02-01T08:42:20.882Z,1.30
2024-02-01T08:43:20.888Z,1.34
2024-02-01T08:44:20.937Z,1.34
2024-02-01T08:45:21.014Z,1.38
2024-02-01T08:46:21.056Z,1.35
2024-02-01T08:47:21.090Z,1.33
2024-02-01T08:48:21.231Z,1.36
2024-02-01T08:49:21.227Z,1.38
2024-02-01T08:50:21.256Z,1.38
2024-02-01T08:51:21.340Z,1.40
2024-02-01T08:52:21.351Z,1.44
2024-02-01T08:53:21.356Z,1.50
2024-02-01T08:54:21.524Z,1.55
2024-02-01T08:55:21.517Z,1.56
2024-02-01T08:56:21.532Z,1.59
2024-02-01T08:57:21.570Z,1.53
2024-02-01T08:58:21.611Z,1.51
2024-02-01T08:59:21.635Z,1.56
2024-02-01T09:00:21.817Z,1.54
2024-02-01T09:01:21.791Z,1.53
2024-02-01T09:02:21.784Z,1.45
2024-02-01T09:03:21.949Z,1.53
2024-02-01T09:04:21.921Z,1.54
2024-02-01T09:05:22.075Z,1.59
2024-02-01T09:06:22.373Z,1.56
2024-02-01T09:07:22.330Z,1.54
2024-02-01T09:08:22.045Z,1.59
2024-02-01T09:09:22.161Z,1.62
2024-02-01T09:10:22.115Z,1.59
2024-02-01T09:11:22.183Z,1.66
2024-02-01T09:12:22.269Z,1.73
2024-02-01T09:13:22.287Z,1.63
2024-02-01T09:14:22.293Z,1.62
2024-02-01T09:15:22.351Z,1.54
2024-02-01T09:16:22.394Z,1.55
2024-02-01T09:17:22.415Z,1.66
2024-02-01T09:18:22.540Z,1.58
2024-02-01T09:19:22.786Z,1.50
2024-02-01T09:20:22.575Z,1.53
2024-02-01T09:21:22.763Z,1.57
2024-02-01T09:22:22.609Z,1.52
2024-02-01T09:23:22.651Z,1.51
2024-02-01T09:24:22.812Z,1.42
2024-02-01T09:25:22.717Z,1.46
2024-02-01T09:26:22.784Z,1.38
2024-02-01T09:27:22.824Z,1.41
2024-02-01T09:28:22.846Z,1.43
2024-02-01T09:29:22.869Z,1.39
2024-02-01T09:30:22.962Z,1.30
2024-02-01T09:31:23.167Z,1.31
2024-02-01T09:32:22.989Z,1.34
2024-02-01T09:33:23.158Z,1.28
2024-02-01T09:34:23.224Z,1.31
2024-02-01T09:35:23.108Z,1.23
2024-02-01T09:36:23.379Z,1.25
2024-02-01T09:37:25.005Z,1.28
2024-02-01T09:38:23.288Z,1.26
2024-02-01T09:39:23.345Z,1.32
2024-02-01T09:40:23.372Z,1.40
2024-02-01T09:41:23.775Z,1.34
2024-02-01T09:42:23.845Z,1.29
2024-02-01T09:43:23.580Z,1.36
2024-02-01T09:44:23.505Z,1.32
2024-02-01T09:45:23.572Z,1.40
2024-02-01T09:46:23.577Z,1.34
2024-02-01T09:47:23.641Z,1.35
2024-02-01T09:48:23.766Z,1.29
2024-02-01T09:49:28.382Z,1.34
2024-02-01T09:50:24.786Z,1.34
2024-02-01T09:51:23.782Z,1.30
2024-02-01T09:52:23.751Z,1.23
2024-02-01T09:53:23.717Z,1.30
2024-02-01T09:54:23.770Z,1.23
2024-02-01T09:55:23.708Z,1.32
2024-02-01T09:56:23.698Z,1.23
2024-02-01T09:57:23.778Z,1.23
2024-02-01T09:58:23.743Z,1.19
2024-02-01T09:59:23.738Z,1.26
2024-02-01T10:00:24.020Z,1.14
2024-02-01T10:01:23.734Z,1.25
2024-02-01T10:02:23.704Z,1.19
2024-02-01T10:03:23.804Z,1.25
2024-02-01T10:04:24.661Z,1.30
2024-02-01T10:05:23.734Z,1.24
2024-02-01T10:06:23.863Z,1.24
2024-02-01T10:07:23.832Z,1.21
2024-02-01T10:08:23.748Z,1.21
2024-02-01T10:09:24.628Z,1.19
2024-02-01T10:10:23.720Z,1.16
2024-02-01T10:11:23.723Z,1.21
2024-02-01T10:12:23.755Z,1.18
2024-02-01T10:13:23.715Z,1.17
2024-02-01T10:14:23.713Z,1.15
2024-02-01T10:15:23.792Z,1.18
2024-02-01T10:16:23.733Z,1.13
2024-02-01T10:17:23.731Z,1.15
2024-02-01T10:18:23.830Z,1.20
2024-02-01T10:19:23.894Z,1.21
2024-02-01T10:20:23.752Z,1.17
2024-02-01T10:21:29.763Z,1.19
2024-02-01T10:22:24.745Z,1.19
2024-02-01T10:23:23.757Z,1.19
2024-02-01T10:24:23.850Z,1.22
2024-02-01T10:25:23.849Z,1.24
2024-02-01T10:26:23.764Z,1.23
2024-02-01T10:27:25.202Z,1.28
2024-02-01T10:28:23.765Z,1.28
2024-02-01T10:29:23.740Z,1.29
2024-02-01T10:30:23.862Z,1.30
2024-02-01T10:31:23.805Z,1.32
2024-02-01T10:32:23.784Z,1.33
2024-02-01T10:33:25.582Z,1.40
2024-02-01T10:34:23.977Z,1.43
2024-02-01T10:35:23.854Z,1.52
2024-02-01T10:36:23.959Z,1.54
2024-02-01T10:37:23.796Z,1.48
2024-02-01T10:38:23.768Z,1.43
2024-02-01T10:39:23.928Z,1.34
2024-02-01T10:40:23.769Z,1.40
2024-02-01T10:41:23.776Z,1.24
2024-02-01T10:42:23.916Z,1.28
2024-02-01T10:43:23.754Z,1.18
2024-02-01T10:44:23.768Z,1.19
2024-02-01T10:45:23.853Z,1.13
2024-02-01T10:46:24.308Z,1.09
2024-02-01T10:47:23.842Z,1.08
2024-02-01T10:48:23.940Z,1.07
2024-02-01T10:49:23.955Z,1.10
2024-02-01T10:50:23.774Z,1.09
2024-02-01T10:51:23.809Z,1.09
2024-02-01T10:52:23.784Z,1.09
2024-02-01T10:53:23.775Z,1.09
2024-02-01T10:54:24.042Z,1.11
2024-02-01T10:55:23.853Z,1.09
2024-02-01T10:56:23.779Z,1.11
2024-02-01T10:57:24.295Z,1.15
2024-02-01T10:58:23.781Z,1.20
2024-02-01T10:59:23.805Z,1.29
2024-02-01T11:00:23.923Z,1.39
2024-02-01T11:01:23.885Z,1.41
2024-02-01T11:02:23.791Z,1.42
2024-02-01T11:03:23.899Z,1.42
2024-02-01T11:04:23.855Z,1.43
2024-02-01T11:05:23.812Z,1.53
2024-02-01T11:06:23.859Z,1.54
2024-02-01T11:07:23.808Z,1.57
2024-02-01T11:08:23.792Z,1.58
2024-02-01T11:09:26.405Z,1.58
2024-02-01T11:10:23.842Z,1.58
2024-02-01T11:11:23.853Z,1.54
2024-02-01T11:12:23.953Z,1.58
2024-02-01T11:13:23.798Z,1.60
2024-02-01T11:14:23.808Z,1.58
2024-02-01T11:15:25.942Z,1.54
2024-02-01T11:16:23.811Z,1.55
2024-02-01T11:17:24.306Z,1.56
2024-02-01T11:18:24.090Z,1.60
2024-02-01T11:19:24.084Z,1.72
2024-02-01T11:20:23.824Z,1.91
2024-02-01T11:21:24.304Z,1.99
2024-02-01T11:22:24.289Z,2.10
2024-02-01T11:23:23.826Z,2.12
2024-02-01T11:24:23.826Z,2.14
2024-02-01T11:25:23.840Z,2.08
2024-02-01T11:26:24.280Z,2.03
2024-02-01T11:27:23.986Z,1.95
2024-02-01T11:28:23.848Z,1.92
2024-02-01T11:29:23.841Z,1.84
2024-02-01T11:30:23.870Z,1.81
2024-02-01T11:31:30.572Z,1.81
2024-02-01T11:32:24.924Z,1.81
2024-02-01T11:33:24.020Z,1.82
2024-02-01T11:34:24.177Z,1.81
2024-02-01T11:35:24.180Z,1.79
2024-02-01T11:36:24.180Z,1.81
2024-02-01T11:37:27.562Z,1.71
2024-02-01T11:38:25.188Z,1.71
2024-02-01T11:39:24.195Z,1.71
2024-02-01T11:40:24.173Z,1.68
2024-02-01T11:41:24.257Z,1.64
2024-02-01T11:42:31.426Z,1.65
2024-02-01T11:43:25.188Z,1.65
2024-02-01T11:44:24.193Z,1.67
2024-02-01T11:45:24.277Z,1.55
2024-02-01T11:46:24.184Z,1.54
2024-02-01T11:47:24.334Z,1.51
2024-02-01T11:48:24.292Z,1.49
2024-02-01T11:49:26.166Z,1.48
2024-02-01T11:50:24.186Z,1.48
2024-02-01T11:51:24.228Z,1.42
2024-02-01T11:52:24.196Z,1.45
2024-02-01T11:53:24.200Z,1.46
2024-02-01T11:54:24.225Z,1.47
2024-02-01T11:55:26.402Z,1.50
2024-02-01T11:56:24.214Z,1.50
2024-02-01T11:57:24.248Z,1.50
2024-02-01T11:58:24.211Z,1.51
2024-02-01T11:59:24.215Z,1.51
2024-02-01T12:00:33.130Z,1.52
2024-02-01T12:01:27.245Z,1.50
2024-02-01T12:02:24.224Z,1.50
2024-02-01T12:03:24.217Z,1.51
2024-02-01T12:04:24.256Z,1.52
2024-02-01T12:05:24.208Z,1.50
2024-02-01T12:06:24.629Z,1.48
2024-02-01T12:07:24.478Z,1.46
2024-02-01T12:08:24.297Z,1.48
2024-02-01T12:09:24.260Z,1.43
2024-02-01T12:10:24.218Z,1.44
2024-02-01T12:11:24.263Z,1.42
2024-02-01T12:12:24.504Z,1.39
2024-02-01T12:13:24.226Z,1.40
2024-02-01T12:14:24.246Z,1.40
2024-02-01T12:15:24.267Z,1.43
2024-02-01T12:16:24.245Z,1.44
2024-02-01T12:17:24.304Z,1.49
2024-02-01T12:18:24.419Z,1.51
2024-02-01T12:19:24.434Z,1.50
2024-02-01T12:20:24.436Z,1.48
2024-02-01T12:21:24.514Z,1.41
2024-02-01T12:22:24.590Z,1.43
2024-02-01T12:23:24.641Z,1.39
2024-02-01T12:24:24.714Z,1.37
2024-02-01T12:25:24.796Z,1.38
2024-02-01T12:26:25.597Z,1.31
2024-02-01T12:27:24.942Z,1.34
2024-02-01T12:28:24.944Z,1.32
2024-02-01T12:29:24.974Z,1.34
2024-02-01T12:30:25.071Z,1.25
2024-02-01T12:31:25.067Z,1.28
2024-02-01T12:32:25.081Z,1.24
2024-02-01T12:33:25.220Z,1.23
2024-02-01T12:34:25.294Z,1.21
2024-02-01T12:35:25.217Z,1.21
2024-02-01T12:36:25.319Z,1.19
2024-02-01T12:37:25.304Z,1.17
2024-02-01T12:38:25.344Z,1.14
2024-02-01T12:39:25.395Z,1.15
2024-02-01T12:40:25.411Z,1.14
2024-02-01T12:41:25.403Z,1.12
2024-02-01T12:42:25.508Z,1.13
2024-02-01T12:43:25.600Z,1.11
2024-02-01T12:44:25.429Z,1.09
2024-02-01T12:45:25.460Z,1.10
2024-02-01T12:46:25.658Z,1.13
2024-02-01T12:47:25.442Z,1.06
2024-02-01T12:48:25.568Z,1.05
2024-02-01T12:49:25.712Z,1.06
2024-02-01T12:50:25.463Z,1.07
2024-02-01T12:51:25.506Z,1.07
2024-02-01T12:52:25.501Z,1.08
2024-02-01T12:53:25.490Z,1.09
2024-02-01T12:54:25.709Z,1.03
2024-02-01T12:55:25.848Z,1.01
2024-02-01T12:56:26.043Z,0.98
2024-02-01T12:57:25.588Z,1.06
2024-02-01T12:58:25.574Z,1.00
2024-02-01T12:59:25.568Z,1.04
2024-02-01T13:00:25.653Z,0.97
2024-02-01T13:01:25.866Z,1.02
2024-02-01T13:02:25.621Z,0.94
2024-02-01T13:03:25.667Z,1.03
2024-02-01T13:04:25.799Z,1.03
2024-02-01T13:05:25.851Z,0.96
2024-02-01T13:06:25.714Z,0.99
2024-02-01T13:07:25.717Z,0.96
2024-02-01T13:08:25.716Z,0.90
2024-02-01T13:09:25.876Z,0.92
2024-02-01T13:10:25.777Z,0.95
2024-02-01T13:11:25.767Z,0.95
2024-02-01T13:12:25.913Z,0.97
2024-02-01T13:13:25.806Z,0.91
2024-02-01T13:14:25.829Z,0.91
2024-02-01T13:15:26.680Z,0.92
2024-02-01T13:16:25.882Z,0.89
2024-02-01T13:17:25.904Z,0.94
2024-02-01T13:18:26.007Z,0.89
2024-02-01T13:19:26.160Z,0.87